EW3205 Gothenburg SE current weather conditions

sailwx.info

Wind from 105 at 1 knots gusting 9

Air temperature 2.8° C
Dewpoint 2.2° C

Last reported at 2019-Dec-13 02:00 UTC.
Time now 2019-Dec-13 02:36 UTC

Location: N 57°44' E 011°47'.
View on Google Maps.

See reports from other nearby stations

  
Tides and Currents Weather Stations Pressure Air Temp Water Temp Dewpoint Dewpoint Depression Visibility Wind Speed Wind Dir Waves Ship Positions
date/time (UTC)wind fromknots sea level pressurealtimeterstation pressurevisibilityair tempwater tempwave heightnotes
2019-Dec-13 02:00 105 1 gusting 9 2.8
2019-Dec-13 01:45 173 2.8
2019-Dec-13 01:30 126 3.3
2019-Dec-13 01:15 142 1 gusting 9 3.3
2019-Dec-13 01:00 148 3.3
2019-Dec-13 00:45 192 0 gusting 7 3.3
2019-Dec-13 00:30 180 3 gusting 10 3.3
2019-Dec-13 00:15 148 3 gusting 13 3.9
2019-Dec-13 00:00 100 1 gusting 5 3.9
2019-Dec-12 23:45 183 0 gusting 6 3.9
2019-Dec-12 23:30 169 6 gusting 11 4.4
2019-Dec-12 23:15 189 2 gusting 6 4.4
2019-Dec-12 23:02 186 4 gusting 10 4.4
2019-Dec-12 22:47 213 4 gusting 10 4.4
2019-Dec-12 22:32 185 6 gusting 11 4.4
2019-Dec-12 22:16 213 5 gusting 12 4.4
2019-Dec-12 22:02 186 4 gusting 12 4.4
2019-Dec-12 21:46 194 5 gusting 12 4.4
2019-Dec-12 21:33 194 3 gusting 6 4.4
2019-Dec-12 21:17 205 5 gusting 9 4.4
2019-Dec-12 21:02 197 5 gusting 9 4.4
2019-Dec-12 20:48 205 2 gusting 7 4.4
2019-Dec-12 20:31 180 3 gusting 8 4.4
2019-Dec-12 20:17 200 3 gusting 6 4.4
2019-Dec-12 20:01 215 3 gusting 11 4.4
2019-Dec-12 19:47 227 4 gusting 12 4.4
2019-Dec-12 19:31 254 4 gusting 12 4.4
2019-Dec-12 19:16 253 5 gusting 9 4.4
2019-Dec-12 19:01 230 5 gusting 10 4.4
2019-Dec-12 18:47 235 3 gusting 7 4.4
2019-Dec-12 18:32 219 3 gusting 10 4.4
2019-Dec-12 18:17 191 4 gusting 8 4.4
2019-Dec-12 18:03 211 4 gusting 13 4.4
2019-Dec-12 17:48 192 4 gusting 8 4.4
2019-Dec-12 17:32 215 5 gusting 9 4.4
2019-Dec-12 17:17 193 2 gusting 10 4.4
2019-Dec-12 17:01 174 5 gusting 12 4.4
2019-Dec-12 16:47 174 4 gusting 8 4.4
2019-Dec-12 16:31 178 4 gusting 11 4.4
2019-Dec-12 16:16 167 4 gusting 10 4.4
2019-Dec-12 16:01 181 1 gusting 6 4.4
2019-Dec-12 15:46 192 3 gusting 10 4.4
2019-Dec-12 15:31 167 6 gusting 12 4.4
2019-Dec-12 15:15 183 6 gusting 12 4.4
2019-Dec-12 15:00 175 2 gusting 7 4.4
2019-Dec-12 14:46 199 3 gusting 6 3.9
2019-Dec-12 14:31 190 3 gusting 8 3.9
2019-Dec-12 14:15 193 3 gusting 7 3.9
2019-Dec-12 14:00 192 1 gusting 5 4.4
2019-Dec-12 13:45 171 1 gusting 7 4.4
2019-Dec-12 13:31 194 2 gusting 5 4.4
2019-Dec-12 13:15 181 2 gusting 6 4.4
2019-Dec-12 13:00 199 2 gusting 7 4.4
2019-Dec-12 12:45 174 5 gusting 9 4.4
2019-Dec-12 12:30 197 2 gusting 6 4.4
2019-Dec-12 12:15 194 4 gusting 8 4.4
2019-Dec-12 12:00 207 1 gusting 5 4.4
2019-Dec-12 11:45 200 2 gusting 5 4.4
2019-Dec-12 11:30 206 4.4
2019-Dec-12 11:15 180 4.4
2019-Dec-12 11:02 175 0 gusting 4 4.4
2019-Dec-12 10:46 197 0 gusting 5 4.4
2019-Dec-12 10:31 177 2 gusting 7 4.4
2019-Dec-12 10:18 130 4.4
2019-Dec-12 10:02 161 0 gusting 6 4.4
2019-Dec-12 09:48 113 0 gusting 4 4.4
2019-Dec-12 09:32 149 3.9
2019-Dec-12 09:18 180 3.9
2019-Dec-12 09:02 180 3.9
2019-Dec-12 08:46 138 3.9
2019-Dec-12 08:31 157 3.9
2019-Dec-12 08:17 137 3.9
2019-Dec-12 08:02 163 3.9
2019-Dec-12 07:46 167 3.9
2019-Dec-12 07:31 108 3.9
2019-Dec-12 07:01 147 3.9
2019-Dec-12 06:46 149 3.9
2019-Dec-12 06:31 161 3.9
2019-Dec-12 06:16 149 3.9
2019-Dec-12 06:01 096 3.3
2019-Dec-12 05:46 182 3.3
2019-Dec-12 05:31 182 3.3
2019-Dec-12 05:16 182 3.3
2019-Dec-12 05:02 182 3.3
2019-Dec-12 04:46 182 3.3
2019-Dec-12 04:31 182 3.3
2019-Dec-12 04:16 182 3.9
2019-Dec-12 04:01 182 3.9
2019-Dec-12 03:45 182 3.9
2019-Dec-12 03:31 182 3.9
2019-Dec-12 03:16 182 3.9
2019-Dec-12 03:01 182 4.4
2019-Dec-12 02:45 182 4.4
2019-Dec-12 02:30 182 4.4
2019-Dec-12 02:15 182 4.4
2019-Dec-12 02:01 182 5.0
2019-Dec-12 01:45 182 5.0
2019-Dec-12 01:30 182 0 gusting 5 5.0
2019-Dec-12 01:15 190 1 gusting 6 5.0
2019-Dec-12 01:00 202 4 gusting 7 5.0
2019-Dec-12 00:45 188 2 gusting 7 5.0
2019-Dec-12 00:30 190 1 gusting 6 5.0
2019-Dec-12 00:19 184 0 gusting 6 5.0
2019-Dec-12 00:02 203 1 gusting 4 5.0
2019-Dec-11 23:46 185 2 gusting 6 5.0
2019-Dec-11 23:31 192 0 gusting 6 5.0
2019-Dec-11 23:17 214 2 gusting 9 5.0
2019-Dec-11 23:03 213 5 gusting 8 5.0
2019-Dec-11 22:47 191 4 gusting 10 5.0
2019-Dec-11 22:31 186 3 gusting 6 5.0
2019-Dec-11 22:16 203 2 gusting 6 5.6
2019-Dec-11 22:02 195 4 gusting 7 5.6
2019-Dec-11 21:47 174 3 gusting 6 5.6
2019-Dec-11 21:34 207 3 gusting 6 5.6
2019-Dec-11 21:17 190 2 gusting 6 5.6
2019-Dec-11 21:02 211 3 gusting 6 5.6
2019-Dec-11 20:47 206 5 gusting 10 5.6
2019-Dec-11 20:32 220 5 gusting 11 5.6
2019-Dec-11 20:17 196 6 gusting 12 5.6
2019-Dec-11 20:01 194 4 gusting 10 5.6
2019-Dec-11 19:47 186 4 gusting 13 5.6
2019-Dec-11 19:32 197 4 gusting 8 5.6
2019-Dec-11 19:16 232 4 gusting 9 5.6
2019-Dec-11 19:01 190 6 gusting 11 5.6
2019-Dec-11 18:47 187 6 gusting 10 5.6
2019-Dec-11 18:31 200 2 gusting 10 5.6
2019-Dec-11 18:16 215 5 gusting 12 5.6
2019-Dec-11 18:02 187 5 gusting 11 5.6
2019-Dec-11 17:46 172 3 gusting 9 5.6
2019-Dec-11 17:31 210 4 gusting 8 5.6
2019-Dec-11 17:16 184 5 gusting 13 5.6
2019-Dec-11 17:01 205 6 gusting 11 5.6
2019-Dec-11 16:46 189 5 gusting 11 5.6
2019-Dec-11 16:31 203 6 gusting 10 5.6
2019-Dec-11 16:16 197 6 gusting 11 5.6
2019-Dec-11 16:02 194 6 gusting 12 5.6
2019-Dec-11 15:45 213 5 gusting 12 5.6
2019-Dec-11 15:31 198 6 gusting 11 5.6
2019-Dec-11 15:16 201 6 gusting 9 5.6
2019-Dec-11 15:01 196 5 gusting 13 5.6
2019-Dec-11 14:46 203 6 gusting 13 6.1
2019-Dec-11 14:32 228 4 gusting 12 6.1
2019-Dec-11 14:15 185 5 gusting 13 6.1
2019-Dec-11 13:47 236 5 gusting 13 6.1
2019-Dec-11 13:31 213 6 gusting 11 6.1
2019-Dec-11 13:17 212 8 gusting 14 6.1
2019-Dec-11 13:01 225 4 gusting 12 6.1
2019-Dec-11 12:46 210 6 gusting 12 6.1
2019-Dec-11 12:31 215 6 gusting 14 6.7
2019-Dec-11 12:16 219 6 gusting 10 6.7
2019-Dec-11 12:00 217 6 gusting 13 6.7
2019-Dec-11 11:47 231 6 gusting 13 6.7
2019-Dec-11 11:30 219 6 gusting 13 6.7
2019-Dec-11 11:15 190 6 gusting 13 6.7
2019-Dec-11 11:00 229 6 gusting 12 6.7
2019-Dec-11 10:45 223 5 gusting 9 6.7
2019-Dec-11 10:31 197 6 gusting 12 6.7
2019-Dec-11 10:16 217 8 gusting 14 6.1
2019-Dec-11 10:00 221 5 gusting 14 6.1
2019-Dec-11 09:45 186 6 gusting 14 6.1
2019-Dec-11 09:30 170 8 gusting 15 6.1
2019-Dec-11 09:15 201 9 gusting 16 6.1
2019-Dec-11 09:00 188 6 gusting 14 6.1
2019-Dec-11 08:45 246 6 gusting 18 6.1
2019-Dec-11 08:30 208 7 gusting 15 6.1
2019-Dec-11 08:15 213 12 gusting 17 6.1
2019-Dec-11 08:00 201 8 gusting 18 6.1
2019-Dec-11 07:45 211 7 gusting 17 6.1
2019-Dec-11 07:30 224 10 gusting 19 6.1
2019-Dec-11 07:15 207 9 gusting 20 6.1
2019-Dec-11 07:02 182 10 gusting 20 5.6
2019-Dec-11 06:49 211 10 gusting 19 5.6
2019-Dec-11 06:33 213 10 gusting 21 5.6
2019-Dec-11 06:17 226 12 gusting 23 5.6
2019-Dec-11 06:03 256 13 gusting 23 5.6
2019-Dec-11 05:47 215 12 gusting 26 5.6
2019-Dec-11 05:32 218 12 gusting 26 5.6
2019-Dec-11 05:18 183 16 gusting 27 5.6
2019-Dec-11 05:02 230 13 gusting 26 5.0
2019-Dec-11 04:47 218 15 gusting 24 5.0
2019-Dec-11 04:32 198 15 gusting 23 5.0
2019-Dec-11 04:17 224 11 gusting 31 5.0
2019-Dec-11 04:03 162 16 gusting 31 5.0
2019-Dec-11 03:47 190 13 gusting 26 5.0
2019-Dec-11 03:32 209 14 gusting 25 4.4
2019-Dec-11 03:18 210 11 gusting 25 4.4
2019-Dec-11 03:01 170 13 gusting 26 4.4
2019-Dec-11 02:48 180 17 gusting 27 4.4
2019-Dec-11 02:32 215 15 gusting 30 4.4
2019-Dec-11 02:17 169 13 gusting 28 4.4
2019-Dec-11 02:02 184 14 gusting 28 4.4